Louisville, Alabama
Current Conditions -  °F | °C
As of 11:53 PM on Saturday 20 Dec 2014 (Local Time) from KTOI Reporting Station
Overcast Overcast  
Wind Chill: 52°   Ceiling: 800
Heat Index: 52°   Visibility: 8mi
Dew Point: 49°   Wind: 5mph
Humidity: 89%   Direction: 70°ENE
Pressure: 30.17"   Gusts: NA
Location:  31.78°N, 85.56°W
Report Text: KTOI 210553Z AUTO 07004KT 8SM OVC008 11/09 A3017 RMK AO2 SLP214 T01110094 10111 20106 401170078 58003
Loading
Personal Weather Stations






























Interactive Weather Map New forecast layout! Learn more

10-Day Weather Forecast

Advertisements
Track Severe Weather on mobile